createdAt,value
2018-12-24T00:01:47.975Z,-2.40
2018-12-24T00:04:19.015Z,-2.40
2018-12-24T00:06:50.209Z,-2.40
2018-12-24T00:09:21.087Z,-2.40
2018-12-24T00:11:52.263Z,-2.30
2018-12-24T00:14:23.069Z,-2.40
2018-12-24T00:16:54.256Z,-2.40
2018-12-24T00:19:25.033Z,-2.50
2018-12-24T00:21:56.047Z,-2.50
2018-12-24T00:24:27.067Z,-2.50
2018-12-24T00:26:58.047Z,-2.50
2018-12-24T00:29:28.996Z,-2.50
2018-12-24T00:31:59.984Z,-2.50
2018-12-24T00:34:30.835Z,-2.50
2018-12-24T00:37:01.796Z,-2.40
2018-12-24T00:39:32.673Z,-2.50
2018-12-24T00:42:03.624Z,-2.50
2018-12-24T00:44:34.527Z,-2.50
2018-12-24T00:47:05.528Z,-2.50
2018-12-24T00:49:36.375Z,-2.50
2018-12-24T00:52:07.416Z,-2.50
2018-12-24T00:54:38.588Z,-2.50
2018-12-24T00:57:09.716Z,-2.50
2018-12-24T00:59:40.539Z,-2.60
2018-12-24T01:02:11.480Z,-2.60
2018-12-24T01:04:42.232Z,-2.60
2018-12-24T01:07:13.274Z,-2.60
2018-12-24T01:09:44.360Z,-2.70
2018-12-24T01:12:15.336Z,-2.70
2018-12-24T01:14:46.350Z,-2.70
2018-12-24T01:17:17.649Z,-2.80
2018-12-24T01:19:48.635Z,-2.80
2018-12-24T01:22:20.018Z,-2.80
2018-12-24T01:24:51.068Z,-2.80
2018-12-24T01:27:22.288Z,-2.90
2018-12-24T01:29:53.120Z,-2.90
2018-12-24T01:32:24.184Z,-2.90
2018-12-24T01:34:54.980Z,-2.90
2018-12-24T01:37:26.271Z,-2.90
2018-12-24T01:39:57.238Z,-2.90
2018-12-24T01:42:33.377Z,-2.90
2018-12-24T01:45:00.676Z,-3.00
2018-12-24T01:47:31.817Z,-3.00
2018-12-24T01:50:02.672Z,-3.00
2018-12-24T01:52:33.488Z,-3.00
2018-12-24T01:55:04.644Z,-3.00
2018-12-24T01:57:35.704Z,-3.10
2018-12-24T02:00:06.607Z,-3.00
2018-12-24T02:02:37.529Z,-3.10
2018-12-24T02:05:08.388Z,-3.10
2018-12-24T02:07:39.452Z,-3.10
2018-12-24T02:10:10.547Z,-3.20
2018-12-24T02:12:42.400Z,-3.20
2018-12-24T02:15:13.426Z,-3.10
2018-12-24T02:17:44.467Z,-3.10
2018-12-24T02:20:15.399Z,-3.10
2018-12-24T02:22:46.603Z,-3.10
2018-12-24T02:25:17.500Z,-3.20
2018-12-24T02:27:48.612Z,-3.20
2018-12-24T02:30:19.864Z,-3.20
2018-12-24T02:32:50.868Z,-3.20
2018-12-24T02:35:21.996Z,-3.20
2018-12-24T02:37:53.075Z,-3.20
2018-12-24T02:40:24.035Z,-3.30
2018-12-24T02:42:55.268Z,-3.30
2018-12-24T02:45:26.117Z,-3.30
2018-12-24T02:47:57.107Z,-3.30
2018-12-24T02:50:28.086Z,-3.40
2018-12-24T02:52:59.220Z,-3.40
2018-12-24T02:55:30.355Z,-3.40
2018-12-24T02:58:01.352Z,-3.40
2018-12-24T03:00:32.351Z,-3.40
2018-12-24T03:03:03.309Z,-3.40
2018-12-24T03:05:34.239Z,-3.40
2018-12-24T03:08:05.311Z,-3.40
2018-12-24T03:10:36.309Z,-3.30
2018-12-24T03:13:07.200Z,-3.30
2018-12-24T03:15:37.960Z,-3.30
2018-12-24T03:18:08.816Z,-3.30
2018-12-24T03:20:39.553Z,-3.30
2018-12-24T03:23:10.503Z,-3.30
2018-12-24T03:25:41.483Z,-3.30
2018-12-24T03:28:12.399Z,-3.40
2018-12-24T03:30:43.330Z,-3.40
2018-12-24T03:33:14.330Z,-3.40
2018-12-24T03:35:45.156Z,-3.40
2018-12-24T03:38:16.116Z,-3.40
2018-12-24T03:40:47.192Z,-3.50
2018-12-24T03:43:18.530Z,-3.60
2018-12-24T03:45:49.423Z,-3.70
2018-12-24T03:48:20.687Z,-3.70
2018-12-24T03:50:51.515Z,-3.70
2018-12-24T03:53:22.824Z,-3.70
2018-12-24T03:55:53.936Z,-3.70
2018-12-24T03:58:24.976Z,-3.80
2018-12-24T04:00:55.838Z,-3.80
2018-12-24T04:03:26.715Z,-3.90
2018-12-24T04:05:57.630Z,-3.90
2018-12-24T04:08:28.624Z,-3.90
2018-12-24T04:10:59.626Z,-4.00
2018-12-24T04:13:30.813Z,-4.00
2018-12-24T04:16:01.663Z,-3.90
2018-12-24T04:18:32.504Z,-3.90
2018-12-24T04:21:03.262Z,-3.90
2018-12-24T04:23:34.104Z,-4.10
2018-12-24T04:26:05.233Z,-4.20
2018-12-24T04:28:36.236Z,-4.30
2018-12-24T04:31:07.017Z,-4.40
2018-12-24T04:33:37.925Z,-4.50
2018-12-24T04:36:08.700Z,-4.70
2018-12-24T04:38:39.741Z,-4.70
2018-12-24T04:41:10.755Z,-4.80
2018-12-24T04:43:41.763Z,-4.90
2018-12-24T04:46:12.533Z,-5.00
2018-12-24T04:48:43.362Z,-4.90
2018-12-24T04:51:14.251Z,-5.00
2018-12-24T04:53:45.157Z,-5.10
2018-12-24T04:56:16.332Z,-5.10
2018-12-24T04:58:47.222Z,-5.00
2018-12-24T05:01:17.977Z,-5.00
2018-12-24T05:03:48.739Z,-5.10
2018-12-24T05:06:19.548Z,-5.10
2018-12-24T05:08:50.671Z,-5.20
2018-12-24T05:11:21.617Z,-5.30
2018-12-24T05:13:52.491Z,-5.30
2018-12-24T05:16:23.484Z,-5.30
2018-12-24T05:18:54.418Z,-5.30
2018-12-24T05:21:25.291Z,-5.30
2018-12-24T05:23:56.271Z,-5.30
2018-12-24T05:26:27.444Z,-5.30
2018-12-24T05:28:58.592Z,-5.40
2018-12-24T05:31:29.452Z,-5.30
2018-12-24T05:34:03.608Z,-5.40
2018-12-24T05:36:35.488Z,-5.30
2018-12-24T05:39:08.011Z,-5.30
2018-12-24T06:01:39.103Z,-4.90
2018-12-24T06:04:09.892Z,-5.20
2018-12-24T06:06:40.948Z,-5.30
2018-12-24T06:09:11.924Z,-5.20
2018-12-24T06:11:43.027Z,-5.20
2018-12-24T06:14:13.860Z,-5.30
2018-12-24T06:16:44.876Z,-5.30
2018-12-24T06:19:15.698Z,-5.30
2018-12-24T06:21:49.504Z,-5.20
2018-12-24T06:24:20.351Z,-5.10
2018-12-24T06:26:51.589Z,-5.00
2018-12-24T06:29:22.669Z,-5.00
2018-12-24T06:31:53.533Z,-5.00
2018-12-24T06:34:24.509Z,-4.90
2018-12-24T06:36:55.544Z,-4.60
2018-12-24T06:39:26.624Z,-4.40
2018-12-24T06:41:59.416Z,-4.20
2018-12-24T06:44:30.848Z,-4.00
2018-12-24T06:47:01.899Z,-4.00
2018-12-24T06:49:33.244Z,-3.70
2018-12-24T06:52:04.172Z,-3.70
2018-12-24T06:54:35.041Z,-3.70
2018-12-24T06:57:07.004Z,-3.60
2018-12-24T06:59:37.793Z,-3.60
2018-12-24T07:02:08.740Z,-3.50
2018-12-24T07:04:39.664Z,-3.40
2018-12-24T07:07:10.592Z,-3.30
2018-12-24T07:09:41.493Z,-3.50
2018-12-24T07:12:12.669Z,-3.60
2018-12-24T07:14:43.567Z,-3.40
2018-12-24T07:17:14.553Z,-3.30
2018-12-24T07:19:45.453Z,-3.40
2018-12-24T07:22:16.561Z,-3.40
2018-12-24T07:24:47.531Z,-3.40
2018-12-24T07:27:18.686Z,-3.50
2018-12-24T07:29:49.533Z,-3.30
2018-12-24T07:32:20.688Z,-3.10
2018-12-24T07:34:51.545Z,-3.10
2018-12-24T07:37:22.504Z,-3.00
2018-12-24T07:39:53.328Z,-2.80
2018-12-24T07:42:24.446Z,-2.70
2018-12-24T07:44:55.287Z,-2.70
2018-12-24T07:47:26.296Z,-2.70
2018-12-24T07:49:57.425Z,-2.50
2018-12-24T07:52:28.624Z,-2.50
2018-12-24T07:55:00.053Z,-2.40
2018-12-24T07:57:33.657Z,-2.40
2018-12-24T08:00:06.473Z,-2.30
2018-12-24T08:02:37.552Z,-2.20
2018-12-24T08:05:08.437Z,-2.10
2018-12-24T08:07:39.285Z,-2.10
2018-12-24T08:10:10.200Z,-2.00
2018-12-24T08:12:41.237Z,-1.90
2018-12-24T08:15:11.980Z,-1.90
2018-12-24T08:17:43.016Z,-1.80
2018-12-24T08:20:14.784Z,-1.70
2018-12-24T08:22:45.956Z,-1.60
2018-12-24T08:25:16.732Z,-1.60
2018-12-24T08:27:48.089Z,-1.60
2018-12-24T08:30:19.900Z,-1.70
2018-12-24T08:32:51.004Z,-1.70
2018-12-24T08:35:21.760Z,-1.60
2018-12-24T08:37:52.728Z,-1.50
2018-12-24T08:40:23.528Z,-1.50
2018-12-24T08:42:54.513Z,-1.60
2018-12-24T08:45:25.364Z,-1.50
2018-12-24T08:47:57.004Z,-1.40
2018-12-24T08:50:27.948Z,-1.40
2018-12-24T08:52:59.020Z,-1.30
2018-12-24T08:55:29.807Z,-1.30
2018-12-24T08:58:00.945Z,-1.20
2018-12-24T09:00:31.835Z,-1.10
2018-12-24T09:03:02.892Z,-1.10
2018-12-24T09:05:33.660Z,-0.90
2018-12-24T09:08:04.520Z,-0.90
2018-12-24T09:10:35.292Z,-0.80
2018-12-24T09:13:06.404Z,-0.60
2018-12-24T09:15:37.268Z,-0.60
2018-12-24T09:18:08.328Z,-0.60
2018-12-24T09:20:39.337Z,-0.60
2018-12-24T09:23:10.501Z,-0.80
2018-12-24T09:25:41.263Z,-0.80
2018-12-24T09:28:12.292Z,-0.70
2018-12-24T09:30:49.083Z,-0.70
2018-12-24T09:33:19.889Z,-0.60
2018-12-24T09:35:50.645Z,-0.60
2018-12-24T09:38:21.547Z,-0.50
2018-12-24T09:43:22.820Z,-0.50
2018-12-24T09:45:53.639Z,-0.40
2018-12-24T09:48:24.817Z,-0.40
2018-12-24T09:50:55.755Z,-0.40
2018-12-24T09:53:26.739Z,-0.30
2018-12-24T09:55:57.514Z,-0.30
2018-12-24T09:58:28.657Z,-0.20
2018-12-24T10:00:59.405Z,-0.20
2018-12-24T10:03:34.609Z,-0.10
2018-12-24T10:06:10.256Z,-0.10
2018-12-24T10:09:26.841Z,-0.10
2018-12-24T10:12:09.072Z,0.00
2018-12-24T10:14:51.295Z,0.10
2018-12-24T10:17:33.392Z,0.10
2018-12-24T10:20:15.973Z,0.10
2018-12-24T10:22:57.562Z,0.10
2018-12-24T10:25:39.700Z,0.10
2018-12-24T10:28:21.581Z,0.00
2018-12-24T10:31:03.720Z,0.00
2018-12-24T10:33:45.740Z,0.10
2018-12-24T10:36:27.839Z,0.20
2018-12-24T10:39:10.060Z,0.30
2018-12-24T10:41:52.450Z,0.20
2018-12-24T10:44:34.900Z,0.30
2018-12-24T10:47:16.990Z,0.30
2018-12-24T10:49:58.542Z,0.40
2018-12-24T10:52:41.092Z,0.40
2018-12-24T10:55:22.828Z,0.40
2018-12-24T10:58:05.121Z,0.50
2018-12-24T11:00:47.401Z,0.50
2018-12-24T11:03:29.424Z,0.60
2018-12-24T11:06:11.641Z,0.50
2018-12-24T11:08:42.174Z,0.60
2018-12-24T11:11:33.362Z,0.60
2018-12-24T11:14:15.985Z,0.60
2018-12-24T11:16:58.273Z,0.60
2018-12-24T11:19:40.308Z,0.60
2018-12-24T11:22:10.628Z,0.50
2018-12-24T11:24:52.704Z,0.40
2018-12-24T11:27:34.516Z,0.50
2018-12-24T11:30:16.880Z,0.50
2018-12-24T11:32:58.792Z,0.50
2018-12-24T11:35:41.419Z,0.60
2018-12-24T11:38:23.164Z,0.70
2018-12-24T11:41:05.501Z,0.60
2018-12-24T11:43:47.524Z,0.60
2018-12-24T11:46:29.697Z,0.70
2018-12-24T11:49:11.985Z,0.80
2018-12-24T11:51:42.785Z,0.90
2018-12-24T11:54:32.472Z,1.00
2018-12-24T11:57:14.960Z,1.00
2018-12-24T11:59:57.131Z,1.00
2018-12-24T12:02:39.650Z,1.00
2018-12-24T12:05:22.033Z,1.00
2018-12-24T12:08:04.288Z,1.00
2018-12-24T12:10:45.976Z,1.00
2018-12-24T12:13:28.423Z,0.90
2018-12-24T12:16:10.341Z,1.00
2018-12-24T12:18:52.928Z,1.00
2018-12-24T12:21:35.071Z,0.90
2018-12-24T12:24:17.720Z,1.00
2018-12-24T12:27:00.209Z,1.10
2018-12-24T12:29:43.240Z,1.10
2018-12-24T12:32:24.821Z,1.20
2018-12-24T12:35:07.117Z,1.20
2018-12-24T12:37:48.866Z,1.30
2018-12-24T12:40:31.374Z,1.40
2018-12-24T12:43:15.392Z,1.40
2018-12-24T12:45:57.376Z,1.40
2018-12-24T12:48:39.672Z,1.50
2018-12-24T12:51:21.340Z,1.50
2018-12-24T12:54:03.654Z,1.50
2018-12-24T12:56:45.905Z,1.50
2018-12-24T12:59:28.471Z,1.90
2018-12-24T13:02:10.757Z,1.80
2018-12-24T13:04:52.767Z,1.80
2018-12-24T13:07:34.357Z,1.60
2018-12-24T13:10:16.760Z,1.60
2018-12-24T13:12:59.008Z,1.50
2018-12-24T13:15:41.603Z,1.50
2018-12-24T13:18:12.261Z,1.60
2018-12-24T13:20:42.963Z,1.50
2018-12-24T13:23:25.528Z,1.60
2018-12-24T13:26:07.537Z,1.60
2018-12-24T13:28:38.108Z,1.60
2018-12-24T13:31:27.581Z,1.60
2018-12-24T13:34:09.912Z,1.50
2018-12-24T13:36:51.756Z,1.60
2018-12-24T13:39:33.882Z,1.60
2018-12-24T13:42:15.801Z,1.60
2018-12-24T13:44:57.526Z,1.60
2018-12-24T13:47:39.604Z,1.50
2018-12-24T13:50:21.080Z,1.30
2018-12-24T13:53:03.248Z,1.30
2018-12-24T13:55:45.529Z,1.30
2018-12-24T13:58:27.576Z,1.20
2018-12-24T14:01:09.635Z,1.10
2018-12-24T14:03:51.896Z,1.10
2018-12-24T14:06:34.500Z,1.00
2018-12-24T14:09:17.101Z,0.80
2018-12-24T14:11:59.678Z,0.70
2018-12-24T14:14:42.037Z,0.60
2018-12-24T14:17:24.448Z,0.40
2018-12-24T14:20:06.887Z,0.20
2018-12-24T14:22:48.791Z,-0.10
2018-12-24T14:28:11.769Z,-0.50
2018-12-24T14:30:54.213Z,-0.50
2018-12-24T14:33:34.774Z,-0.60
2018-12-24T14:36:17.048Z,-0.60
2018-12-24T14:38:59.268Z,-0.70
2018-12-24T14:41:41.415Z,-0.90
2018-12-24T14:44:23.310Z,-0.90
2018-12-24T14:47:06.092Z,-0.90
2018-12-24T14:49:48.417Z,-1.00
2018-12-24T14:52:30.412Z,-1.00
2018-12-24T14:55:12.392Z,-1.10
2018-12-24T14:57:42.925Z,-1.10
2018-12-24T15:00:25.317Z,-1.20
2018-12-24T15:03:07.428Z,-1.20
2018-12-24T15:05:49.515Z,-1.30
2018-12-24T15:08:32.080Z,-1.30
2018-12-24T15:11:14.200Z,-1.40
2018-12-24T15:13:44.548Z,-1.50
2018-12-24T15:16:33.745Z,-1.50
2018-12-24T15:19:10.506Z,-1.50
2018-12-24T15:21:52.844Z,-1.50
2018-12-24T15:24:34.741Z,-1.60
2018-12-24T15:27:16.951Z,-1.70
2018-12-24T15:29:59.079Z,-1.70
2018-12-24T15:32:41.152Z,-1.70
2018-12-24T15:35:23.632Z,-1.80
2018-12-24T15:38:05.864Z,-1.80
2018-12-24T15:40:47.829Z,-1.80
2018-12-24T15:43:29.991Z,-1.80
2018-12-24T15:46:12.087Z,-1.80
2018-12-24T15:48:54.684Z,-1.80
2018-12-24T15:51:36.773Z,-1.80
2018-12-24T15:54:22.356Z,-1.70
2018-12-24T15:56:52.908Z,-1.60
2018-12-24T15:59:35.435Z,-1.60
2018-12-24T16:02:17.305Z,-1.50
2018-12-24T16:04:59.835Z,-1.40
2018-12-24T16:07:42.240Z,-1.40
2018-12-24T16:10:24.504Z,-1.40
2018-12-24T16:13:07.014Z,-1.40
2018-12-24T16:15:49.231Z,-1.20
2018-12-24T16:18:31.108Z,-1.10
2018-12-24T16:21:13.620Z,-1.20
2018-12-24T16:23:55.403Z,-1.10
2018-12-24T16:29:37.470Z,-1.00
2018-12-24T16:32:19.555Z,-0.90
2018-12-24T16:35:01.746Z,-0.90
2018-12-24T16:37:43.793Z,-1.00
2018-12-24T16:40:26.211Z,-0.80
2018-12-24T16:43:08.176Z,-0.80
2018-12-24T16:45:50.463Z,-0.70
2018-12-24T16:48:32.480Z,-0.60
2018-12-24T16:51:15.068Z,-0.60
2018-12-24T16:53:57.200Z,-0.50
2018-12-24T16:56:39.088Z,-0.40
2018-12-24T16:59:19.747Z,-0.50
2018-12-24T17:02:02.144Z,-0.60
2018-12-24T17:04:44.260Z,-0.60
2018-12-24T17:07:26.876Z,-0.70
2018-12-24T17:10:08.895Z,-0.90
2018-12-24T17:12:51.076Z,-1.00
2018-12-24T17:15:33.148Z,-1.10
2018-12-24T17:18:03.860Z,-1.10
2018-12-24T17:20:53.456Z,-1.20
2018-12-24T17:23:35.643Z,-1.30
2018-12-24T17:26:17.724Z,-1.30
2018-12-24T17:28:48.568Z,-1.40
2018-12-24T17:31:18.891Z,-1.30
2018-12-24T17:34:01.562Z,-1.50
2018-12-24T17:36:44.012Z,-1.50
2018-12-24T17:39:28.179Z,-1.50
2018-12-24T17:41:58.719Z,-1.60
2018-12-24T17:44:41.201Z,-1.50
2018-12-24T17:47:23.466Z,-1.60
2018-12-24T17:50:06.085Z,-1.50
2018-12-24T17:52:48.321Z,-1.40
2018-12-24T17:55:30.611Z,-1.40
2018-12-24T17:58:12.448Z,-1.50
2018-12-24T18:00:54.228Z,-1.50
2018-12-24T18:03:36.869Z,-1.60
2018-12-24T18:06:19.069Z,-1.60
2018-12-24T18:09:01.539Z,-1.60
2018-12-24T18:11:44.849Z,-1.60
2018-12-24T18:14:27.082Z,-1.60
2018-12-24T18:17:09.315Z,-1.60
2018-12-24T18:19:51.735Z,-1.70
2018-12-24T18:22:22.608Z,-1.80
2018-12-24T18:25:12.024Z,-1.80
2018-12-24T18:27:54.230Z,-1.80
2018-12-24T18:30:36.608Z,-1.90
2018-12-24T18:33:18.535Z,-1.90
2018-12-24T18:36:00.173Z,-2.00
2018-12-24T18:38:42.408Z,-1.90
2018-12-24T18:41:24.692Z,-2.00
2018-12-24T18:44:07.040Z,-2.00
2018-12-24T18:46:47.637Z,-2.10
2018-12-24T18:49:29.988Z,-2.10
2018-12-24T18:52:12.315Z,-2.10
2018-12-24T18:54:54.728Z,-2.20
2018-12-24T18:57:37.152Z,-2.20
2018-12-24T19:00:18.952Z,-2.30
2018-12-24T19:03:01.304Z,-2.30
2018-12-24T19:05:43.692Z,-2.20
2018-12-24T19:08:25.419Z,-2.20
2018-12-24T19:11:07.568Z,-2.20
2018-12-24T19:13:49.803Z,-2.30
2018-12-24T19:16:32.308Z,-2.20
2018-12-24T19:19:14.550Z,-2.20
2018-12-24T19:21:56.448Z,-2.20
2018-12-24T19:24:38.580Z,-2.10
2018-12-24T19:27:09.035Z,-2.20
2018-12-24T19:29:58.467Z,-2.10
2018-12-24T19:32:28.964Z,-2.10
2018-12-24T19:35:18.545Z,-2.10
2018-12-24T19:38:00.984Z,-2.10
2018-12-24T19:40:42.776Z,-2.00
2018-12-24T19:43:25.235Z,-2.20
2018-12-24T19:51:16.659Z,-2.00
2018-12-24T19:53:58.416Z,-2.00
2018-12-24T19:56:40.424Z,-2.10
2018-12-24T19:59:22.807Z,-2.10
2018-12-24T20:02:04.594Z,-2.00
2018-12-24T20:04:45.024Z,-2.10
2018-12-24T20:07:27.263Z,-2.10
2018-12-24T20:10:09.488Z,-2.00
2018-12-24T20:12:51.652Z,-2.00
2018-12-24T20:15:34.080Z,-2.10
2018-12-24T20:18:04.439Z,-2.20
2018-12-24T20:20:46.871Z,-2.10
2018-12-24T20:23:29.110Z,-2.00
2018-12-24T20:26:11.552Z,-1.90
2018-12-24T20:28:53.424Z,-1.80
2018-12-24T20:31:35.766Z,-1.90
2018-12-24T20:34:06.148Z,-1.90
2018-12-24T20:36:48.568Z,-1.80
2018-12-24T20:39:31.028Z,-1.80
2018-12-24T20:42:13.508Z,-1.80
2018-12-24T20:44:55.780Z,-1.80
2018-12-24T20:47:38.388Z,-1.70
2018-12-24T20:50:20.004Z,-1.70
2018-12-24T20:53:02.332Z,-1.80
2018-12-24T20:55:44.419Z,-1.80
2018-12-24T20:58:27.528Z,-1.80
2018-12-24T21:01:09.528Z,-1.80
2018-12-24T21:03:51.756Z,-1.80
2018-12-24T21:06:33.868Z,-1.80
2018-12-24T21:09:16.096Z,-1.80
2018-12-24T21:11:58.556Z,-1.80
2018-12-24T21:14:41.032Z,-1.90
2018-12-24T21:17:23.088Z,-1.90
2018-12-24T21:20:05.279Z,-1.90
2018-12-24T21:22:47.112Z,-2.00
2018-12-24T21:25:29.461Z,-2.00
2018-12-24T21:28:12.168Z,-2.10
2018-12-24T21:30:54.519Z,-2.10
2018-12-24T21:33:36.435Z,-2.10
2018-12-24T21:36:07.279Z,-2.00
2018-12-24T21:38:56.675Z,-2.10
2018-12-24T21:41:27.082Z,-2.10
2018-12-24T21:47:17.496Z,-2.10
2018-12-24T21:49:59.723Z,-2.00
2018-12-24T21:52:42.131Z,-1.90
2018-12-24T21:55:23.725Z,-1.90
2018-12-24T21:58:06.539Z,-1.80
2018-12-24T22:00:36.902Z,-1.80
2018-12-24T22:03:19.263Z,-1.80
2018-12-24T22:05:49.693Z,-1.70
2018-12-24T22:08:32.160Z,-1.30
2018-12-24T22:11:14.488Z,-1.10
2018-12-24T22:13:57.992Z,-0.80
2018-12-24T22:16:40.451Z,-0.30
2018-12-24T22:19:23.041Z,0.00
2018-12-24T22:22:05.188Z,0.40
2018-12-24T22:24:47.222Z,0.60
2018-12-24T22:27:27.776Z,1.10
2018-12-24T22:30:10.348Z,1.30
2018-12-24T22:32:52.464Z,1.50
2018-12-24T22:35:34.840Z,1.70
2018-12-24T22:38:17.638Z,2.00
2018-12-24T22:40:59.798Z,2.10
2018-12-24T22:43:41.879Z,2.40
2018-12-24T22:46:24.092Z,2.70
2018-12-24T22:49:06.608Z,3.00
2018-12-24T22:51:48.698Z,3.00
2018-12-24T22:54:31.267Z,3.30
2018-12-24T22:57:13.849Z,3.40
2018-12-24T22:59:56.031Z,3.60
2018-12-24T23:02:38.014Z,3.70
2018-12-24T23:05:20.245Z,3.80
2018-12-24T23:08:02.575Z,3.90
2018-12-24T23:10:44.136Z,4.20
2018-12-24T23:13:26.257Z,4.20
2018-12-24T23:16:09.351Z,4.20
2018-12-24T23:18:53.254Z,4.30
2018-12-24T23:21:35.556Z,4.30
2018-12-24T23:24:17.824Z,4.40
2018-12-24T23:26:59.968Z,4.40
2018-12-24T23:29:42.224Z,4.40
2018-12-24T23:32:23.848Z,4.50
2018-12-24T23:35:06.195Z,4.60
2018-12-24T23:37:48.823Z,4.60
2018-12-24T23:40:32.009Z,4.70
2018-12-24T23:43:14.224Z,4.70
2018-12-24T23:45:56.804Z,4.80
2018-12-24T23:48:38.546Z,4.90
2018-12-24T23:51:21.069Z,4.90
2018-12-24T23:54:02.848Z,5.00
2018-12-24T23:56:45.138Z,5.10
2018-12-24T23:59:27.025Z,5.10
